Brighton, South Carolina
Current Conditions -  °F | °C
As of 1:35 PM on Sunday 28 Dec 2014 (Local Time) from KJYL Reporting Station
Clear Clear  
Wind Chill: 74°   Ceiling: Unl
Heat Index: 74°   Visibility: 10mi
Dew Point: 65°   Wind: 9mph
Humidity: 72%   Direction: 260°W
Pressure: 30.05"   Gusts: 16mph
Location:  32.6001°N, 81.2393°W
Report Text: KJYL 281835Z AUTO 26008G14KT 10SM CLR 24/18 A3005 RMK AO2 T02360184
Loading
Personal Weather Stations






























Interactive Weather Map New forecast layout! Learn more

10-Day Weather Forecast

Advertisements
Track Severe Weather on mobile